Seven Oaks, California
Current Conditions -  °F | °C
As of 7:15 AM on Wednesday 22 Oct 2014 (Local Time) from KL35 Reporting Station
Clear Clear  
Wind Chill: 32°   Ceiling: Unl
Heat Index: 32°   Visibility: 7mi
Dew Point: 14°   Wind: 0mph
Humidity: 47%   Direction: NA
Pressure: 30.19"   Gusts: NA
Location:  34.1811°N, 116.928°W
Report Text: KL35 221415Z AUTO 00000KT 7SM CLR 00/M10 A3019 RMK AO2
Loading
Personal Weather Stations






























Interactive Weather Map
Tropical Storm Tracking
New forecast layout! Learn more

10-Day Weather Forecast

Advertisements
Track Severe Weather on mobile